createdAt,value
2023-02-24T00:02:20.102Z,288.97
2023-02-24T00:04:51.846Z,582.00
2023-02-24T00:07:20.352Z,332.60
2023-02-24T00:09:49.053Z,188.60
2023-02-24T00:12:20.696Z,238.23
2023-02-24T00:14:48.665Z,792.13
2023-02-24T00:17:16.722Z,212.73
2023-02-24T00:19:46.379Z,361.33
2023-02-24T00:22:15.689Z,529.57
2023-02-24T00:24:43.642Z,535.70
2023-02-24T00:27:12.366Z,714.50
2023-02-24T00:29:42.062Z,542.47
2023-02-24T00:32:12.869Z,739.13
2023-02-24T00:34:41.332Z,373.00
2023-02-24T00:37:10.023Z,631.80
2023-02-24T00:39:41.715Z,177.47
2023-02-24T00:42:09.965Z,88.13
2023-02-24T00:44:39.912Z,160.23
2023-02-24T00:47:10.312Z,612.83
2023-02-24T00:49:42.180Z,72.23
2023-02-24T00:52:13.606Z,294.90
2023-02-24T00:54:43.363Z,65.77
2023-02-24T00:57:12.424Z,333.47
2023-02-24T00:59:41.079Z,278.97
2023-02-24T01:02:09.059Z,458.23
2023-02-24T01:04:38.472Z,401.70
2023-02-24T01:07:10.877Z,187.80
2023-02-24T01:09:42.764Z,90.60
2023-02-24T01:12:30.212Z,264.73
2023-02-24T01:14:58.198Z,312.87
2023-02-24T01:17:26.431Z,41.73
2023-02-24T01:19:55.109Z,63.67
2023-02-24T01:22:23.879Z,381.17
2023-02-24T01:24:53.389Z,179.67
2023-02-24T01:27:21.385Z,116.63
2023-02-24T01:29:49.912Z,288.00
2023-02-24T01:32:20.963Z,243.33
2023-02-24T01:34:51.985Z,52.13
2023-02-24T01:37:20.460Z,227.63
2023-02-24T01:39:49.273Z,278.13
2023-02-24T01:42:21.374Z,812.87
2023-02-24T01:45:13.356Z,228.10
2023-02-24T01:47:42.846Z,64.60
2023-02-24T01:50:15.534Z,86.33
2023-02-24T01:52:46.370Z,55.20
2023-02-24T01:55:20.174Z,537.97
2023-02-24T01:57:52.470Z,46.20
2023-02-24T02:00:32.983Z,114.43
2023-02-24T02:03:08.055Z,427.90
2023-02-24T02:05:36.395Z,74.03
2023-02-24T02:08:04.657Z,52.13
2023-02-24T02:10:34.012Z,43.17
2023-02-24T02:13:04.578Z,77.33
2023-02-24T02:15:37.968Z,165.53
2023-02-24T02:18:13.448Z,46.40
2023-02-24T02:21:06.129Z,120.63
2023-02-24T02:24:00.281Z,61.77
2023-02-24T02:26:47.399Z,259.53
2023-02-24T02:29:46.500Z,594.30
2023-02-24T02:32:53.195Z,205.80
2023-02-24T02:35:26.763Z,353.60
2023-02-24T02:38:03.268Z,263.77
2023-02-24T02:40:39.386Z,166.43
2023-02-24T02:43:17.216Z,77.50
2023-02-24T02:45:51.692Z,211.97
2023-02-24T02:48:24.278Z,466.80
2023-02-24T02:50:56.267Z,139.27
2023-02-24T02:53:30.228Z,165.63
2023-02-24T02:56:04.080Z,121.90
2023-02-24T02:58:36.169Z,161.17
2023-02-24T03:01:07.285Z,54.20
2023-02-24T03:03:39.644Z,376.50
2023-02-24T03:06:12.971Z,231.17
2023-02-24T03:08:45.084Z,48.30
2023-02-24T03:11:17.639Z,188.13
2023-02-24T03:13:49.571Z,110.97
2023-02-24T03:16:18.928Z,197.90
2023-02-24T03:18:51.894Z,205.27
2023-02-24T03:21:30.610Z,295.60
2023-02-24T03:23:58.797Z,182.47
2023-02-24T03:26:31.618Z,1259.10
2023-02-24T03:29:07.558Z,472.83
2023-02-24T03:31:43.711Z,723.37
2023-02-24T03:34:16.053Z,297.23
2023-02-24T03:36:45.850Z,609.87
2023-02-24T03:39:15.799Z,85.53
2023-02-24T03:41:56.203Z,160.67
2023-02-24T03:44:24.721Z,556.40
2023-02-24T03:46:54.981Z,710.13
2023-02-24T03:49:25.345Z,59.17
2023-02-24T03:52:10.748Z,116.57
2023-02-24T03:55:06.248Z,172.50
2023-02-24T03:57:54.911Z,75.63
2023-02-24T04:00:34.279Z,73.27
2023-02-24T04:03:18.409Z,62.07
2023-02-24T04:05:52.830Z,193.70
2023-02-24T04:08:25.228Z,164.93
2023-02-24T04:11:00.052Z,126.27
2023-02-24T04:13:35.387Z,474.33
2023-02-24T04:16:11.173Z,148.63
2023-02-24T04:18:41.669Z,248.67
2023-02-24T04:21:09.678Z,324.20
2023-02-24T04:23:43.662Z,83.67
2023-02-24T04:26:14.923Z,162.90
2023-02-24T04:28:44.007Z,29.97
2023-02-24T04:31:17.491Z,254.80
2023-02-24T04:33:50.295Z,35.70
2023-02-24T04:36:18.975Z,260.87
2023-02-24T04:38:48.630Z,183.20
2023-02-24T04:41:21.196Z,202.00
2023-02-24T04:43:50.764Z,240.20
2023-02-24T04:46:19.030Z,308.30
2023-02-24T04:48:47.084Z,51.23
2023-02-24T04:51:15.088Z,124.47
2023-02-24T04:53:43.319Z,34.27
2023-02-24T04:56:12.615Z,221.47
2023-02-24T04:58:42.655Z,114.43
2023-02-24T05:01:11.815Z,76.27
2023-02-24T05:03:42.474Z,207.07
2023-02-24T05:06:16.044Z,131.10
2023-02-24T05:08:45.013Z,69.80
2023-02-24T05:11:17.036Z,171.53
2023-02-24T05:13:47.164Z,1735.33
2023-02-24T05:16:18.173Z,145.10
2023-02-24T05:18:46.428Z,100.47
2023-02-24T05:21:33.443Z,185.40
2023-02-24T05:24:06.537Z,140.50
2023-02-24T05:26:38.044Z,111.03
2023-02-24T05:29:07.568Z,488.83
2023-02-24T05:31:36.990Z,71.47
2023-02-24T05:34:07.660Z,521.80
2023-02-24T05:36:39.102Z,285.97
2023-02-24T05:39:12.441Z,1305.10
2023-02-24T05:41:44.176Z,237.70
2023-02-24T05:44:15.797Z,156.93
2023-02-24T05:46:45.526Z,171.50
2023-02-24T05:49:16.141Z,148.43
2023-02-24T05:51:54.592Z,160.20
2023-02-24T05:54:25.814Z,67.03
2023-02-24T05:56:57.007Z,178.50
2023-02-24T05:59:25.288Z,155.50
2023-02-24T06:01:54.122Z,188.57
2023-02-24T06:04:39.106Z,1047.50
2023-02-24T06:07:13.619Z,162.10
2023-02-24T06:09:42.989Z,186.43
2023-02-24T06:12:14.613Z,74.77
2023-02-24T06:14:43.268Z,151.27
2023-02-24T06:17:11.218Z,173.10
2023-02-24T06:19:41.197Z,85.83
2023-02-24T06:22:13.056Z,100.90
2023-02-24T06:24:44.201Z,82.03
2023-02-24T06:27:17.904Z,86.93
2023-02-24T06:29:50.039Z,137.80
2023-02-24T06:32:18.786Z,159.37
2023-02-24T06:34:47.059Z,307.40
2023-02-24T06:37:16.248Z,95.33
2023-02-24T06:39:44.337Z,481.00
2023-02-24T06:42:14.024Z,1001.60
2023-02-24T06:44:42.901Z,307.50
2023-02-24T06:47:14.351Z,168.20
2023-02-24T06:49:42.714Z,115.10
2023-02-24T06:52:18.317Z,68.83
2023-02-24T06:54:48.931Z,159.50
2023-02-24T06:57:20.361Z,218.57
2023-02-24T06:59:49.018Z,64.87
2023-02-24T07:02:17.941Z,457.90
2023-02-24T07:04:46.080Z,1237.23
2023-02-24T07:07:15.143Z,164.87
2023-02-24T07:09:45.416Z,176.20
2023-02-24T07:12:13.654Z,1202.53
2023-02-24T07:14:42.991Z,240.73
2023-02-24T07:17:14.701Z,134.47
2023-02-24T07:19:42.719Z,921.47
2023-02-24T07:22:10.842Z,536.30
2023-02-24T07:24:41.315Z,736.67
2023-02-24T07:27:13.051Z,413.33
2023-02-24T07:29:42.447Z,250.40
2023-02-24T07:32:11.589Z,139.07
2023-02-24T07:34:40.938Z,413.13
2023-02-24T07:37:10.045Z,430.13
2023-02-24T07:39:39.479Z,221.80
2023-02-24T07:42:09.237Z,486.90
2023-02-24T07:44:39.011Z,90.93
2023-02-24T07:47:08.830Z,183.83
2023-02-24T07:49:37.360Z,317.07
2023-02-24T07:52:08.147Z,290.53
2023-02-24T07:54:36.822Z,716.13
2023-02-24T07:57:06.420Z,1245.13
2023-02-24T07:59:38.036Z,883.03
2023-02-24T08:02:07.874Z,861.70
2023-02-24T08:04:41.194Z,1179.73
2023-02-24T08:07:14.352Z,228.90
2023-02-24T08:10:08.252Z,405.87
2023-02-24T08:12:36.227Z,539.97
2023-02-24T08:15:17.286Z,1430.13
2023-02-24T08:17:47.370Z,1751.37
2023-02-24T08:20:22.881Z,1410.67
2023-02-24T08:22:53.119Z,1795.70
2023-02-24T08:25:24.906Z,414.40
2023-02-24T08:28:12.524Z,860.80
2023-02-24T08:30:45.726Z,746.60
2023-02-24T08:33:19.244Z,1999.90
2023-02-24T08:35:53.200Z,1289.73
2023-02-24T08:38:26.406Z,1648.13
2023-02-24T08:40:57.243Z,1300.13
2023-02-24T08:43:36.675Z,1106.17
2023-02-24T08:46:18.267Z,608.83
2023-02-24T08:48:48.529Z,1999.90
2023-02-24T08:51:22.961Z,1999.90
2023-02-24T08:53:53.715Z,1999.90
2023-02-24T08:56:27.146Z,734.47
2023-02-24T08:59:05.472Z,1999.90
2023-02-24T09:01:35.714Z,925.27
2023-02-24T09:04:07.341Z,771.40
2023-02-24T09:06:44.769Z,1537.10
2023-02-24T09:09:18.388Z,1404.07
2023-02-24T09:11:47.830Z,1999.90
2023-02-24T09:14:26.710Z,1482.77
2023-02-24T09:17:11.516Z,765.63
2023-02-24T09:20:07.434Z,431.10
2023-02-24T09:22:55.808Z,1999.90
2023-02-24T09:25:24.214Z,1593.57
2023-02-24T09:27:55.743Z,1999.90
2023-02-24T09:30:36.747Z,1999.90
2023-02-24T09:33:21.101Z,1999.90
2023-02-24T09:35:52.128Z,1999.90
2023-02-24T09:38:45.165Z,1999.90
2023-02-24T09:41:31.706Z,1999.90
2023-02-24T09:44:07.497Z,523.77
2023-02-24T09:46:53.880Z,607.93
2023-02-24T09:49:25.362Z,483.77
2023-02-24T09:52:00.586Z,885.63
2023-02-24T09:54:35.326Z,548.80
2023-02-24T09:57:09.938Z,1620.40
2023-02-24T10:00:01.108Z,1999.90
2023-02-24T10:02:44.530Z,1999.90
2023-02-24T10:05:23.351Z,1999.90
2023-02-24T10:07:53.219Z,1999.90
2023-02-24T10:10:28.280Z,1999.90
2023-02-24T10:13:09.628Z,1999.90
2023-02-24T10:15:59.313Z,1999.90
2023-02-24T10:18:31.450Z,1744.53
2023-02-24T10:21:06.546Z,1999.90
2023-02-24T10:23:45.247Z,1999.90
2023-02-24T10:26:31.654Z,1999.90
2023-02-24T10:29:09.134Z,1999.90
2023-02-24T10:31:45.995Z,1212.13
2023-02-24T10:34:20.250Z,1999.90
2023-02-24T10:36:50.391Z,1999.90
2023-02-24T10:39:25.336Z,1999.90
2023-02-24T10:41:58.281Z,1999.90
2023-02-24T10:44:36.363Z,1999.90
2023-02-24T10:47:12.395Z,1999.90
2023-02-24T10:49:56.941Z,1999.90
2023-02-24T10:53:10.928Z,1999.90
2023-02-24T10:55:54.129Z,1999.90
2023-02-24T10:58:37.763Z,1999.90
2023-02-24T11:01:13.611Z,1955.03
2023-02-24T11:04:01.100Z,1999.90
2023-02-24T11:06:48.173Z,1999.90
2023-02-24T11:09:32.084Z,892.60
2023-02-24T11:12:22.479Z,1315.80
2023-02-24T11:15:12.663Z,1785.27
2023-02-24T11:17:50.773Z,1999.90
2023-02-24T11:20:46.071Z,1999.90
2023-02-24T11:23:19.757Z,1999.90
2023-02-24T11:25:50.207Z,1999.90
2023-02-24T11:28:30.436Z,1999.90
2023-02-24T11:31:08.574Z,1999.90
2023-02-24T11:33:42.446Z,1208.13
2023-02-24T11:36:20.581Z,1999.90
2023-02-24T11:39:11.824Z,888.30
2023-02-24T11:41:50.951Z,1999.90
2023-02-24T11:44:28.257Z,1999.90
2023-02-24T11:47:03.985Z,1002.57
2023-02-24T11:49:38.179Z,1999.90
2023-02-24T11:52:11.569Z,1999.90
2023-02-24T11:54:44.775Z,1452.23
2023-02-24T11:57:19.295Z,1999.90
2023-02-24T11:59:53.332Z,612.83
2023-02-24T12:02:35.722Z,1999.90
2023-02-24T12:05:12.717Z,1651.93
2023-02-24T12:07:45.067Z,1652.70
2023-02-24T12:10:19.084Z,1999.90
2023-02-24T12:12:53.958Z,1999.90
2023-02-24T12:15:26.323Z,1999.90
2023-02-24T12:18:04.350Z,1999.90
2023-02-24T12:20:41.548Z,1216.80
2023-02-24T12:23:18.020Z,394.33
2023-02-24T12:26:01.988Z,661.60
2023-02-24T12:28:46.144Z,554.10
2023-02-24T12:31:24.701Z,1208.33
2023-02-24T12:34:08.603Z,318.40
2023-02-24T12:37:05.568Z,72.57
2023-02-24T12:39:42.056Z,103.60
2023-02-24T12:42:23.230Z,1133.37
2023-02-24T12:45:01.740Z,139.87
2023-02-24T12:47:44.006Z,104.77
2023-02-24T12:50:31.189Z,266.77
2023-02-24T12:53:09.340Z,258.37
2023-02-24T12:55:44.197Z,67.47
2023-02-24T12:58:15.269Z,63.10
2023-02-24T13:00:58.631Z,82.63
2023-02-24T13:03:36.751Z,72.87
2023-02-24T13:06:16.494Z,128.83
2023-02-24T13:08:54.333Z,179.90
2023-02-24T13:11:37.403Z,143.67
2023-02-24T13:14:13.646Z,360.37
2023-02-24T13:16:42.346Z,68.37
2023-02-24T13:19:21.028Z,44.57
2023-02-24T13:22:08.714Z,47.40
2023-02-24T13:24:38.626Z,124.90
2023-02-24T13:27:15.343Z,835.83
2023-02-24T13:29:45.557Z,76.70
2023-02-24T13:32:32.432Z,68.33
2023-02-24T13:35:02.645Z,1999.90
2023-02-24T13:37:35.718Z,68.80
2023-02-24T13:40:22.609Z,198.00
2023-02-24T13:42:59.344Z,1999.90
2023-02-24T13:45:29.487Z,1169.60
2023-02-24T13:48:22.860Z,264.43
2023-02-24T13:51:08.185Z,1919.83
2023-02-24T13:53:52.561Z,1999.90
2023-02-24T13:56:36.700Z,1628.93
2023-02-24T13:59:41.779Z,152.40
2023-02-24T14:02:16.057Z,1999.90
2023-02-24T14:04:50.017Z,1513.33
2023-02-24T14:07:23.279Z,563.20
2023-02-24T14:09:57.576Z,984.03
2023-02-24T14:12:28.204Z,906.57
2023-02-24T14:14:57.468Z,169.17
2023-02-24T14:17:28.763Z,228.10
2023-02-24T14:20:08.946Z,117.50
2023-02-24T14:22:44.140Z,300.47
2023-02-24T14:25:15.726Z,763.43
2023-02-24T14:27:45.227Z,226.37
2023-02-24T14:30:25.966Z,366.93
2023-02-24T14:32:54.425Z,284.37
2023-02-24T14:35:28.591Z,107.40
2023-02-24T14:37:57.619Z,391.57
2023-02-24T14:40:27.868Z,84.53
2023-02-24T14:42:57.209Z,546.93
2023-02-24T14:45:26.906Z,1999.90
2023-02-24T14:47:55.875Z,1999.90
2023-02-24T14:50:28.340Z,241.97
2023-02-24T14:53:00.332Z,64.50
2023-02-24T14:55:32.731Z,82.07
2023-02-24T14:58:05.851Z,113.00
2023-02-24T15:00:37.478Z,617.27
2023-02-24T15:03:11.976Z,48.10
2023-02-24T15:05:45.965Z,225.77
2023-02-24T15:08:26.904Z,115.17
2023-02-24T15:10:56.759Z,188.37
2023-02-24T15:13:34.854Z,172.10
2023-02-24T15:16:10.239Z,68.30
2023-02-24T15:18:38.255Z,278.20
2023-02-24T15:21:08.466Z,1101.60
2023-02-24T15:23:38.943Z,199.77
2023-02-24T15:26:08.760Z,697.07
2023-02-24T15:28:38.213Z,1785.90
2023-02-24T15:31:11.077Z,761.20
2023-02-24T15:33:41.268Z,61.70
2023-02-24T15:36:18.632Z,523.73
2023-02-24T15:38:47.195Z,91.60
2023-02-24T15:41:16.739Z,602.77
2023-02-24T15:43:50.241Z,144.00
2023-02-24T15:46:25.172Z,106.07
2023-02-24T15:48:55.496Z,253.33
2023-02-24T15:51:31.977Z,420.57
2023-02-24T15:54:01.492Z,497.97
2023-02-24T15:56:33.590Z,342.07
2023-02-24T15:59:02.459Z,151.43
2023-02-24T16:01:31.420Z,1259.87
2023-02-24T16:03:59.364Z,87.07
2023-02-24T16:06:29.448Z,191.33
2023-02-24T16:08:58.749Z,127.07
2023-02-24T16:11:30.074Z,124.70
2023-02-24T16:14:01.588Z,214.77
2023-02-24T16:16:29.644Z,185.47
2023-02-24T16:18:57.818Z,206.53
2023-02-24T16:21:25.938Z,1949.27
2023-02-24T16:23:53.936Z,233.50
2023-02-24T16:26:23.964Z,815.13
2023-02-24T16:28:55.035Z,325.13
2023-02-24T16:31:26.136Z,964.37
2023-02-24T16:33:55.947Z,502.40
2023-02-24T16:36:25.424Z,252.03
2023-02-24T16:38:53.902Z,404.43
2023-02-24T16:41:21.928Z,1687.07
2023-02-24T16:43:49.926Z,597.50
2023-02-24T16:46:21.309Z,1820.50
2023-02-24T16:48:53.244Z,979.03
2023-02-24T16:51:22.347Z,197.53
2023-02-24T16:53:50.301Z,77.67
2023-02-24T16:56:18.248Z,173.67
2023-02-24T16:58:46.190Z,107.53
2023-02-24T17:01:20.264Z,57.87
2023-02-24T17:03:51.891Z,100.67
2023-02-24T17:06:22.342Z,50.23
2023-02-24T17:08:51.129Z,65.57
2023-02-24T17:11:21.982Z,223.00
2023-02-24T17:13:49.991Z,490.30
2023-02-24T17:16:17.975Z,577.83
2023-02-24T17:18:46.067Z,67.90
2023-02-24T17:21:16.813Z,269.00
2023-02-24T17:23:45.846Z,123.23
2023-02-24T17:26:16.054Z,58.77
2023-02-24T17:28:44.344Z,808.63
2023-02-24T17:31:12.573Z,355.50
2023-02-24T17:33:41.475Z,127.33
2023-02-24T17:36:09.451Z,1168.03
2023-02-24T17:38:39.036Z,161.20
2023-02-24T17:41:06.992Z,1825.03
2023-02-24T17:43:34.995Z,92.63
2023-02-24T17:46:06.994Z,1504.03
2023-02-24T17:48:35.729Z,150.07
2023-02-24T17:51:03.804Z,1280.97
2023-02-24T17:53:32.261Z,92.50
2023-02-24T17:56:05.437Z,82.73
2023-02-24T17:58:33.888Z,494.93
2023-02-24T18:01:02.878Z,185.87
2023-02-24T18:03:31.974Z,503.87
2023-02-24T18:06:01.446Z,67.57
2023-02-24T18:08:30.449Z,701.37
2023-02-24T18:10:59.927Z,741.27
2023-02-24T18:13:30.378Z,508.10
2023-02-24T18:15:58.750Z,607.60
2023-02-24T18:18:27.818Z,351.67
2023-02-24T18:21:01.623Z,809.13
2023-02-24T18:23:29.617Z,993.63
2023-02-24T18:25:57.601Z,178.60
2023-02-24T18:28:25.540Z,304.00
2023-02-24T18:30:54.953Z,225.17
2023-02-24T18:33:23.058Z,151.73
2023-02-24T18:35:59.206Z,502.60
2023-02-24T18:38:27.561Z,1593.70
2023-02-24T18:40:59.930Z,1878.60
2023-02-24T18:43:28.396Z,626.17
2023-02-24T18:46:02.969Z,197.67
2023-02-24T18:48:32.384Z,310.43
2023-02-24T18:51:01.565Z,174.97
2023-02-24T18:53:34.167Z,71.93
2023-02-24T18:56:03.536Z,51.23
2023-02-24T18:58:31.878Z,129.40
2023-02-24T19:01:01.795Z,147.77
2023-02-24T19:03:29.732Z,145.37
2023-02-24T19:05:57.673Z,74.27
2023-02-24T19:08:25.661Z,484.23
2023-02-24T19:10:53.614Z,110.37
2023-02-24T19:13:24.012Z,125.10
2023-02-24T19:15:52.241Z,239.73
2023-02-24T19:18:21.549Z,134.20
2023-02-24T19:20:49.489Z,450.63
2023-02-24T19:23:17.427Z,128.97
2023-02-24T19:25:45.380Z,127.90
2023-02-24T19:28:13.898Z,54.20
2023-02-24T19:30:42.778Z,83.10
2023-02-24T19:33:10.991Z,591.73
2023-02-24T19:35:43.379Z,180.53
2023-02-24T19:38:15.027Z,171.83
2023-02-24T19:40:43.847Z,80.50
2023-02-24T19:43:12.082Z,408.63
2023-02-24T19:45:42.633Z,537.30
2023-02-24T19:48:11.358Z,680.53
2023-02-24T19:50:42.010Z,282.13
2023-02-24T19:53:10.073Z,97.03
2023-02-24T19:55:38.215Z,833.03
2023-02-24T19:58:06.283Z,90.33
2023-02-24T20:00:34.265Z,115.13
2023-02-24T20:03:02.190Z,79.40
2023-02-24T20:05:30.132Z,836.03
2023-02-24T20:07:59.648Z,85.97
2023-02-24T20:10:27.588Z,262.47
2023-02-24T20:12:58.003Z,435.87
2023-02-24T20:15:26.004Z,134.23
2023-02-24T20:17:53.956Z,192.83
2023-02-24T20:20:22.199Z,98.60
2023-02-24T20:22:50.240Z,67.40
2023-02-24T20:25:19.733Z,129.50
2023-02-24T20:27:47.816Z,80.83
2023-02-24T20:30:16.208Z,150.90
2023-02-24T20:32:44.326Z,173.93
2023-02-24T20:35:12.916Z,38.13
2023-02-24T20:37:40.905Z,81.00
2023-02-24T20:40:10.564Z,68.17
2023-02-24T20:42:39.876Z,91.67
2023-02-24T20:45:09.075Z,105.33
2023-02-24T20:47:37.082Z,70.17
2023-02-24T20:50:05.757Z,95.40
2023-02-24T20:52:34.311Z,72.00
2023-02-24T20:55:02.455Z,62.97
2023-02-24T20:57:30.481Z,142.17
2023-02-24T21:00:07.200Z,67.80
2023-02-24T21:02:35.252Z,62.83
2023-02-24T21:05:03.415Z,74.37
2023-02-24T21:07:32.761Z,114.03
2023-02-24T21:10:00.779Z,141.07
2023-02-24T21:12:28.822Z,197.67
2023-02-24T21:14:56.841Z,101.53
2023-02-24T21:17:26.318Z,151.90
2023-02-24T21:19:54.387Z,227.73
2023-02-24T21:22:22.653Z,276.80
2023-02-24T21:24:51.533Z,89.47
2023-02-24T21:27:20.066Z,114.00
2023-02-24T21:29:48.596Z,173.17
2023-02-24T21:32:17.119Z,450.03
2023-02-24T21:34:47.466Z,1119.43
2023-02-24T21:37:16.089Z,139.00
2023-02-24T21:39:44.658Z,219.70
2023-02-24T21:42:14.220Z,77.30
2023-02-24T21:44:44.570Z,278.50
2023-02-24T21:47:12.979Z,652.20
2023-02-24T21:49:41.092Z,1914.33
2023-02-24T21:52:11.678Z,1945.53
2023-02-24T21:54:39.952Z,341.77
2023-02-24T21:57:08.287Z,145.53
2023-02-24T21:59:36.842Z,1999.90
2023-02-24T22:02:05.589Z,420.67
2023-02-24T22:04:34.912Z,583.33
2023-02-24T22:07:03.624Z,1999.90
2023-02-24T22:09:33.733Z,1999.90
2023-02-24T22:12:02.280Z,897.83
2023-02-24T22:14:31.669Z,283.93
2023-02-24T22:16:59.924Z,69.13
2023-02-24T22:19:28.034Z,145.90
2023-02-24T22:22:01.291Z,759.33
2023-02-24T22:24:29.337Z,1864.40
2023-02-24T22:26:58.825Z,421.63
2023-02-24T22:29:27.037Z,1999.90
2023-02-24T22:31:55.203Z,274.53
2023-02-24T22:34:23.268Z,1999.90
2023-02-24T22:36:51.230Z,1062.27
2023-02-24T22:39:19.369Z,1912.90
2023-02-24T22:41:47.871Z,385.33
2023-02-24T22:44:19.239Z,305.57
2023-02-24T22:46:47.748Z,1999.90
2023-02-24T22:49:15.732Z,506.23
2023-02-24T22:51:43.706Z,1999.90
2023-02-24T22:54:11.629Z,804.83
2023-02-24T22:56:39.652Z,1155.27
2023-02-24T22:59:07.596Z,1524.23
2023-02-24T23:01:38.167Z,941.67
2023-02-24T23:04:07.770Z,381.23
2023-02-24T23:06:37.061Z,185.23
2023-02-24T23:09:06.234Z,1239.90
2023-02-24T23:11:37.220Z,1999.90
2023-02-24T23:14:09.933Z,759.80
2023-02-24T23:16:39.736Z,600.10
2023-02-24T23:19:10.609Z,650.70
2023-02-24T23:21:40.680Z,326.77
2023-02-24T23:24:10.872Z,248.50
2023-02-24T23:26:41.916Z,931.23
2023-02-24T23:29:10.451Z,1095.83
2023-02-24T23:31:40.980Z,1999.90
2023-02-24T23:34:09.900Z,1925.07
2023-02-24T23:36:40.345Z,292.10
2023-02-24T23:39:09.335Z,381.63
2023-02-24T23:41:38.042Z,905.30
2023-02-24T23:44:06.822Z,1999.90
2023-02-24T23:46:36.090Z,734.57
2023-02-24T23:49:06.345Z,261.50
2023-02-24T23:51:50.099Z,1236.60
2023-02-24T23:54:18.844Z,369.17
2023-02-24T23:56:46.895Z,400.03
2023-02-24T23:59:15.269Z,691.40
